sensor_id;sensor_type;location;lat;lon;timestamp;temperature;humidity
8709;DHT22;4391;48.678;9.280;2022-11-14T00:00:40;0.80;99.90
8709;DHT22;4391;48.678;9.280;2022-11-14T00:03:08;1.00;99.90
8709;DHT22;4391;48.678;9.280;2022-11-14T00:05:38;1.10;99.90
8709;DHT22;4391;48.678;9.280;2022-11-14T00:08:05;1.20;99.90
8709;DHT22;4391;48.678;9.280;2022-11-14T00:10:32;1.30;99.90
8709;DHT22;4391;48.678;9.280;2022-11-14T00:13:00;1.40;99.90
8709;DHT22;4391;48.678;9.280;2022-11-14T00:15:27;1.40;99.90
8709;DHT22;4391;48.678;9.280;2022-11-14T00:17:54;1.40;99.90
8709;DHT22;4391;48.678;9.280;2022-11-14T00:20:21;1.30;99.90
8709;DHT22;4391;48.678;9.280;2022-11-14T00:22:48;1.20;99.90
8709;DHT22;4391;48.678;9.280;2022-11-14T00:25:14;1.10;99.90
8709;DHT22;4391;48.678;9.280;2022-11-14T00:27:41;1.00;99.90
8709;DHT22;4391;48.678;9.280;2022-11-14T00:30:10;0.90;99.90
8709;DHT22;4391;48.678;9.280;2022-11-14T00:32:37;0.80;99.90
8709;DHT22;4391;48.678;9.280;2022-11-14T00:35:04;0.80;99.90
8709;DHT22;4391;48.678;9.280;2022-11-14T00:37:31;0.70;99.90
8709;DHT22;4391;48.678;9.280;2022-11-14T00:39:58;0.60;99.90
8709;DHT22;4391;48.678;9.280;2022-11-14T00:42:25;0.60;99.90
8709;DHT22;4391;48.678;9.280;2022-11-14T00:44:52;0.50;99.90
8709;DHT22;4391;48.678;9.280;2022-11-14T00:47:20;0.40;99.90
8709;DHT22;4391;48.678;9.280;2022-11-14T00:49:46;0.40;99.90
8709;DHT22;4391;48.678;9.280;2022-11-14T00:52:13;0.40;99.90
8709;DHT22;4391;48.678;9.280;2022-11-14T00:54:40;0.40;99.90
8709;DHT22;4391;48.678;9.280;2022-11-14T00:57:07;0.40;99.90
8709;DHT22;4391;48.678;9.280;2022-11-14T00:59:33;0.40;99.90
8709;DHT22;4391;48.678;9.280;2022-11-14T01:02:00;0.30;99.90
8709;DHT22;4391;48.678;9.280;2022-11-14T01:04:28;0.30;99.90
8709;DHT22;4391;48.678;9.280;2022-11-14T01:06:55;0.30;99.90
8709;DHT22;4391;48.678;9.280;2022-11-14T01:09:22;0.40;99.90
8709;DHT22;4391;48.678;9.280;2022-11-14T01:11:49;0.40;99.90
8709;DHT22;4391;48.678;9.280;2022-11-14T01:14:16;0.40;99.90
8709;DHT22;4391;48.678;9.280;2022-11-14T01:16:42;0.30;99.90
8709;DHT22;4391;48.678;9.280;2022-11-14T01:19:09;0.20;99.90
8709;DHT22;4391;48.678;9.280;2022-11-14T01:21:37;0.20;99.90
8709;DHT22;4391;48.678;9.280;2022-11-14T01:24:05;0.20;99.90
8709;DHT22;4391;48.678;9.280;2022-11-14T01:26:32;0.20;99.90
8709;DHT22;4391;48.678;9.280;2022-11-14T01:28:59;0.20;99.90
8709;DHT22;4391;48.678;9.280;2022-11-14T01:31:26;0.20;99.90
8709;DHT22;4391;48.678;9.280;2022-11-14T01:33:53;0.20;99.90
8709;DHT22;4391;48.678;9.280;2022-11-14T01:36:20;0.20;99.90
8709;DHT22;4391;48.678;9.280;2022-11-14T01:38:52;0.20;99.90
8709;DHT22;4391;48.678;9.280;2022-11-14T01:41:20;0.20;99.90
8709;DHT22;4391;48.678;9.280;2022-11-14T01:43:47;0.10;99.90
8709;DHT22;4391;48.678;9.280;2022-11-14T01:46:18;0.10;99.90
8709;DHT22;4391;48.678;9.280;2022-11-14T01:48:50;0.10;99.90
8709;DHT22;4391;48.678;9.280;2022-11-14T01:51:22;0.00;99.90
8709;DHT22;4391;48.678;9.280;2022-11-14T01:53:54;0.00;99.90
8709;DHT22;4391;48.678;9.280;2022-11-14T01:56:28;0.00;99.90
8709;DHT22;4391;48.678;9.280;2022-11-14T01:58:59;0.00;99.90
8709;DHT22;4391;48.678;9.280;2022-11-14T02:01:27;0.00;99.90
8709;DHT22;4391;48.678;9.280;2022-11-14T02:03:56;0.00;99.90
8709;DHT22;4391;48.678;9.280;2022-11-14T02:06:26;0.00;99.90
8709;DHT22;4391;48.678;9.280;2022-11-14T02:08:55;0.00;99.90
8709;DHT22;4391;48.678;9.280;2022-11-14T02:11:23;0.00;99.90
8709;DHT22;4391;48.678;9.280;2022-11-14T02:13:50;0.00;99.90
8709;DHT22;4391;48.678;9.280;2022-11-14T02:16:17;0.00;99.90
8709;DHT22;4391;48.678;9.280;2022-11-14T02:18:43;-0.10;99.90
8709;DHT22;4391;48.678;9.280;2022-11-14T02:21:12;-0.10;99.90
8709;DHT22;4391;48.678;9.280;2022-11-14T02:23:38;-0.10;99.90
8709;DHT22;4391;48.678;9.280;2022-11-14T02:26:05;-0.10;99.90
8709;DHT22;4391;48.678;9.280;2022-11-14T02:28:32;-0.10;99.90
8709;DHT22;4391;48.678;9.280;2022-11-14T02:30:59;0.00;99.90
8709;DHT22;4391;48.678;9.280;2022-11-14T02:33:26;0.00;99.90
8709;DHT22;4391;48.678;9.280;2022-11-14T02:35:52;-0.10;99.90
8709;DHT22;4391;48.678;9.280;2022-11-14T02:38:21;0.00;99.90
8709;DHT22;4391;48.678;9.280;2022-11-14T02:40:47;0.10;99.90
8709;DHT22;4391;48.678;9.280;2022-11-14T02:43:14;0.10;99.90
8709;DHT22;4391;48.678;9.280;2022-11-14T02:45:41;0.10;99.90
8709;DHT22;4391;48.678;9.280;2022-11-14T02:48:08;0.00;99.90
8709;DHT22;4391;48.678;9.280;2022-11-14T02:50:35;0.00;99.90
8709;DHT22;4391;48.678;9.280;2022-11-14T02:53:01;-0.10;99.90
8709;DHT22;4391;48.678;9.280;2022-11-14T02:55:30;0.00;99.90
8709;DHT22;4391;48.678;9.280;2022-11-14T02:57:56;-0.10;99.90
8709;DHT22;4391;48.678;9.280;2022-11-14T03:00:23;-0.10;99.90
8709;DHT22;4391;48.678;9.280;2022-11-14T03:02:52;0.00;99.90
8709;DHT22;4391;48.678;9.280;2022-11-14T03:05:18;0.20;99.90
8709;DHT22;4391;48.678;9.280;2022-11-14T03:07:45;0.20;99.90
8709;DHT22;4391;48.678;9.280;2022-11-14T03:10:12;0.20;99.90
8709;DHT22;4391;48.678;9.280;2022-11-14T03:12:40;0.10;99.90
8709;DHT22;4391;48.678;9.280;2022-11-14T03:15:08;0.00;99.90
8709;DHT22;4391;48.678;9.280;2022-11-14T03:17:35;-0.10;99.90
8709;DHT22;4391;48.678;9.280;2022-11-14T03:20:02;-0.10;99.90
8709;DHT22;4391;48.678;9.280;2022-11-14T03:22:29;-0.20;99.90
8709;DHT22;4391;48.678;9.280;2022-11-14T03:24:56;-0.20;99.90
8709;DHT22;4391;48.678;9.280;2022-11-14T03:27:23;-0.20;99.90
8709;DHT22;4391;48.678;9.280;2022-11-14T03:29:51;-0.30;99.90
8709;DHT22;4391;48.678;9.280;2022-11-14T03:32:18;-0.30;99.90
8709;DHT22;4391;48.678;9.280;2022-11-14T03:34:45;-0.30;99.90
8709;DHT22;4391;48.678;9.280;2022-11-14T03:37:12;-0.40;99.90
8709;DHT22;4391;48.678;9.280;2022-11-14T03:39:38;-0.40;99.90
8709;DHT22;4391;48.678;9.280;2022-11-14T03:42:05;-0.40;99.90
8709;DHT22;4391;48.678;9.280;2022-11-14T03:44:32;-0.50;99.90
8709;DHT22;4391;48.678;9.280;2022-11-14T03:47:00;-0.50;99.90
8709;DHT22;4391;48.678;9.280;2022-11-14T03:49:30;-0.50;99.90
8709;DHT22;4391;48.678;9.280;2022-11-14T03:51:57;-0.60;99.90
8709;DHT22;4391;48.678;9.280;2022-11-14T03:54:24;-0.60;99.90
8709;DHT22;4391;48.678;9.280;2022-11-14T03:56:50;-0.60;99.90
8709;DHT22;4391;48.678;9.280;2022-11-14T03:59:17;-0.60;99.90
8709;DHT22;4391;48.678;9.280;2022-11-14T04:01:44;-0.50;99.90
8709;DHT22;4391;48.678;9.280;2022-11-14T04:04:13;-0.50;99.90
8709;DHT22;4391;48.678;9.280;2022-11-14T04:06:40;-0.50;99.90
8709;DHT22;4391;48.678;9.280;2022-11-14T04:09:08;-0.50;99.90
8709;DHT22;4391;48.678;9.280;2022-11-14T04:11:35;-0.50;99.90
8709;DHT22;4391;48.678;9.280;2022-11-14T04:14:02;-0.50;99.90
8709;DHT22;4391;48.678;9.280;2022-11-14T04:16:28;-0.40;99.90
8709;DHT22;4391;48.678;9.280;2022-11-14T04:18:55;-0.40;99.90
8709;DHT22;4391;48.678;9.280;2022-11-14T04:21:23;-0.40;99.90
8709;DHT22;4391;48.678;9.280;2022-11-14T04:23:50;-0.40;99.90
8709;DHT22;4391;48.678;9.280;2022-11-14T04:26:17;-0.40;99.90
8709;DHT22;4391;48.678;9.280;2022-11-14T04:28:44;-0.40;99.90
8709;DHT22;4391;48.678;9.280;2022-11-14T04:31:11;-0.40;99.90
8709;DHT22;4391;48.678;9.280;2022-11-14T04:33:40;-0.40;99.90
8709;DHT22;4391;48.678;9.280;2022-11-14T04:36:08;-0.40;99.90
8709;DHT22;4391;48.678;9.280;2022-11-14T04:41:04;-0.40;99.90
8709;DHT22;4391;48.678;9.280;2022-11-14T04:43:31;-0.40;99.90
8709;DHT22;4391;48.678;9.280;2022-11-14T04:45:57;-0.40;99.90
8709;DHT22;4391;48.678;9.280;2022-11-14T04:48:24;-0.40;99.90
8709;DHT22;4391;48.678;9.280;2022-11-14T04:50:51;-0.40;99.90
8709;DHT22;4391;48.678;9.280;2022-11-14T04:53:18;-0.50;99.90
8709;DHT22;4391;48.678;9.280;2022-11-14T04:55:45;-0.40;99.90
8709;DHT22;4391;48.678;9.280;2022-11-14T04:58:13;-0.40;99.90
8709;DHT22;4391;48.678;9.280;2022-11-14T05:00:40;-0.40;99.90
8709;DHT22;4391;48.678;9.280;2022-11-14T05:03:07;-0.40;99.90
8709;DHT22;4391;48.678;9.280;2022-11-14T05:05:34;-0.40;99.90
8709;DHT22;4391;48.678;9.280;2022-11-14T05:08:01;-0.40;99.90
8709;DHT22;4391;48.678;9.280;2022-11-14T05:10:28;-0.40;99.90
8709;DHT22;4391;48.678;9.280;2022-11-14T05:12:55;-0.40;99.90
8709;DHT22;4391;48.678;9.280;2022-11-14T05:15:23;-0.40;99.90
8709;DHT22;4391;48.678;9.280;2022-11-14T05:17:50;-0.40;99.90
8709;DHT22;4391;48.678;9.280;2022-11-14T05:20:17;-0.40;99.90
8709;DHT22;4391;48.678;9.280;2022-11-14T05:22:43;-0.50;99.90
8709;DHT22;4391;48.678;9.280;2022-11-14T05:25:10;-0.50;99.90
8709;DHT22;4391;48.678;9.280;2022-11-14T05:27:37;-0.50;99.90
8709;DHT22;4391;48.678;9.280;2022-11-14T05:30:04;-0.50;99.90
8709;DHT22;4391;48.678;9.280;2022-11-14T05:32:33;-0.50;99.90
8709;DHT22;4391;48.678;9.280;2022-11-14T05:35:00;-0.50;99.90
8709;DHT22;4391;48.678;9.280;2022-11-14T05:37:27;-0.40;99.90
8709;DHT22;4391;48.678;9.280;2022-11-14T05:39:54;-0.40;99.90
8709;DHT22;4391;48.678;9.280;2022-11-14T05:42:20;-0.40;99.90
8709;DHT22;4391;48.678;9.280;2022-11-14T05:44:47;-0.40;99.90
8709;DHT22;4391;48.678;9.280;2022-11-14T05:47:14;-0.30;99.90
8709;DHT22;4391;48.678;9.280;2022-11-14T05:49:43;-0.30;99.90
8709;DHT22;4391;48.678;9.280;2022-11-14T05:52:10;-0.20;99.90
8709;DHT22;4391;48.678;9.280;2022-11-14T05:54:37;-0.20;99.90
8709;DHT22;4391;48.678;9.280;2022-11-14T05:57:04;-0.10;99.90
8709;DHT22;4391;48.678;9.280;2022-11-14T05:59:30;0.00;99.90
8709;DHT22;4391;48.678;9.280;2022-11-14T06:01:57;0.10;99.90
8709;DHT22;4391;48.678;9.280;2022-11-14T06:04:24;0.20;99.90
8709;DHT22;4391;48.678;9.280;2022-11-14T06:06:53;0.20;99.90
8709;DHT22;4391;48.678;9.280;2022-11-14T06:09:19;0.30;99.90
8709;DHT22;4391;48.678;9.280;2022-11-14T06:11:46;0.40;99.90
8709;DHT22;4391;48.678;9.280;2022-11-14T06:14:13;0.40;99.90
8709;DHT22;4391;48.678;9.280;2022-11-14T06:16:40;0.40;99.90
8709;DHT22;4391;48.678;9.280;2022-11-14T06:19:07;0.40;99.90
8709;DHT22;4391;48.678;9.280;2022-11-14T06:21:34;0.50;99.90
8709;DHT22;4391;48.678;9.280;2022-11-14T06:24:02;0.50;99.90
8709;DHT22;4391;48.678;9.280;2022-11-14T06:26:30;0.50;99.90
8709;DHT22;4391;48.678;9.280;2022-11-14T06:28:57;0.50;99.90
8709;DHT22;4391;48.678;9.280;2022-11-14T06:31:25;0.60;99.90
8709;DHT22;4391;48.678;9.280;2022-11-14T06:33:52;0.60;99.90
8709;DHT22;4391;48.678;9.280;2022-11-14T06:36:19;0.60;99.90
8709;DHT22;4391;48.678;9.280;2022-11-14T06:38:46;0.70;99.90
8709;DHT22;4391;48.678;9.280;2022-11-14T06:41:15;0.70;99.90
8709;DHT22;4391;48.678;9.280;2022-11-14T06:43:44;0.80;99.90
8709;DHT22;4391;48.678;9.280;2022-11-14T06:46:12;0.90;99.90
8709;DHT22;4391;48.678;9.280;2022-11-14T06:48:40;1.00;99.90
8709;DHT22;4391;48.678;9.280;2022-11-14T06:51:09;1.00;99.90
8709;DHT22;4391;48.678;9.280;2022-11-14T06:53:36;1.10;99.90
8709;DHT22;4391;48.678;9.280;2022-11-14T06:56:05;1.20;99.90
8709;DHT22;4391;48.678;9.280;2022-11-14T06:58:35;1.20;99.90
8709;DHT22;4391;48.678;9.280;2022-11-14T07:01:04;1.20;99.90
8709;DHT22;4391;48.678;9.280;2022-11-14T07:03:31;1.20;99.90
8709;DHT22;4391;48.678;9.280;2022-11-14T07:05:58;1.30;99.90
8709;DHT22;4391;48.678;9.280;2022-11-14T07:08:24;1.20;99.90
8709;DHT22;4391;48.678;9.280;2022-11-14T07:10:51;1.20;99.90
8709;DHT22;4391;48.678;9.280;2022-11-14T07:13:18;1.20;99.90
8709;DHT22;4391;48.678;9.280;2022-11-14T07:15:50;1.30;99.90
8709;DHT22;4391;48.678;9.280;2022-11-14T07:18:17;1.40;99.90
8709;DHT22;4391;48.678;9.280;2022-11-14T07:20:44;1.40;99.90
8709;DHT22;4391;48.678;9.280;2022-11-14T07:23:11;1.40;99.90
8709;DHT22;4391;48.678;9.280;2022-11-14T07:25:38;1.50;99.90
8709;DHT22;4391;48.678;9.280;2022-11-14T07:28:06;1.50;99.90
8709;DHT22;4391;48.678;9.280;2022-11-14T07:30:33;1.60;99.90
8709;DHT22;4391;48.678;9.280;2022-11-14T07:33:01;1.70;99.90
8709;DHT22;4391;48.678;9.280;2022-11-14T07:35:28;1.70;99.90
8709;DHT22;4391;48.678;9.280;2022-11-14T07:38:00;1.80;99.90
8709;DHT22;4391;48.678;9.280;2022-11-14T07:40:27;1.80;99.90
8709;DHT22;4391;48.678;9.280;2022-11-14T07:42:57;1.90;99.90
8709;DHT22;4391;48.678;9.280;2022-11-14T07:45:24;1.90;99.90
8709;DHT22;4391;48.678;9.280;2022-11-14T07:47:55;2.00;99.90
8709;DHT22;4391;48.678;9.280;2022-11-14T07:50:24;2.10;99.90
8709;DHT22;4391;48.678;9.280;2022-11-14T07:52:51;2.10;99.90
8709;DHT22;4391;48.678;9.280;2022-11-14T07:55:18;2.20;99.90
8709;DHT22;4391;48.678;9.280;2022-11-14T07:57:46;2.30;99.90
8709;DHT22;4391;48.678;9.280;2022-11-14T08:00:13;2.40;99.90
8709;DHT22;4391;48.678;9.280;2022-11-14T08:02:41;2.40;99.90
8709;DHT22;4391;48.678;9.280;2022-11-14T08:05:08;2.30;99.90
8709;DHT22;4391;48.678;9.280;2022-11-14T08:07:37;2.40;99.90
8709;DHT22;4391;48.678;9.280;2022-11-14T08:10:04;2.40;99.90
8709;DHT22;4391;48.678;9.280;2022-11-14T08:12:31;2.40;99.90
8709;DHT22;4391;48.678;9.280;2022-11-14T08:14:58;2.40;99.90
8709;DHT22;4391;48.678;9.280;2022-11-14T08:17:25;2.40;99.90
8709;DHT22;4391;48.678;9.280;2022-11-14T08:19:52;2.40;99.90
8709;DHT22;4391;48.678;9.280;2022-11-14T08:22:18;2.40;99.90
8709;DHT22;4391;48.678;9.280;2022-11-14T08:24:47;2.30;99.90
8709;DHT22;4391;48.678;9.280;2022-11-14T08:27:13;2.30;99.90
8709;DHT22;4391;48.678;9.280;2022-11-14T08:29:40;2.20;99.90
8709;DHT22;4391;48.678;9.280;2022-11-14T08:32:07;2.20;99.90
8709;DHT22;4391;48.678;9.280;2022-11-14T08:34:34;2.30;99.90
8709;DHT22;4391;48.678;9.280;2022-11-14T08:37:01;2.30;99.90
8709;DHT22;4391;48.678;9.280;2022-11-14T08:39:28;2.30;99.90
8709;DHT22;4391;48.678;9.280;2022-11-14T08:41:56;2.40;99.90
8709;DHT22;4391;48.678;9.280;2022-11-14T08:44:23;2.60;99.90
8709;DHT22;4391;48.678;9.280;2022-11-14T08:46:50;2.80;99.90
8709;DHT22;4391;48.678;9.280;2022-11-14T08:49:17;3.00;99.90
8709;DHT22;4391;48.678;9.280;2022-11-14T08:51:43;3.20;99.90
8709;DHT22;4391;48.678;9.280;2022-11-14T08:54:10;3.50;99.90
8709;DHT22;4391;48.678;9.280;2022-11-14T08:56:37;3.80;99.90
8709;DHT22;4391;48.678;9.280;2022-11-14T08:59:05;4.30;99.90
8709;DHT22;4391;48.678;9.280;2022-11-14T09:01:32;5.00;99.90
8709;DHT22;4391;48.678;9.280;2022-11-14T09:03:59;5.60;99.90
8709;DHT22;4391;48.678;9.280;2022-11-14T09:06:26;6.00;99.90
8709;DHT22;4391;48.678;9.280;2022-11-14T09:08:53;6.20;99.90
8709;DHT22;4391;48.678;9.280;2022-11-14T09:11:20;6.10;99.90
8709;DHT22;4391;48.678;9.280;2022-11-14T09:13:47;5.80;99.90
8709;DHT22;4391;48.678;9.280;2022-11-14T09:16:15;5.60;99.90
8709;DHT22;4391;48.678;9.280;2022-11-14T09:18:42;5.70;99.90
8709;DHT22;4391;48.678;9.280;2022-11-14T09:21:09;5.80;99.90
8709;DHT22;4391;48.678;9.280;2022-11-14T09:23:37;5.90;99.90
8709;DHT22;4391;48.678;9.280;2022-11-14T09:26:04;5.90;99.90
8709;DHT22;4391;48.678;9.280;2022-11-14T09:28:32;5.80;99.90
8709;DHT22;4391;48.678;9.280;2022-11-14T09:30:59;5.60;99.90
8709;DHT22;4391;48.678;9.280;2022-11-14T09:33:28;5.60;99.90
8709;DHT22;4391;48.678;9.280;2022-11-14T09:35:56;5.50;99.90
8709;DHT22;4391;48.678;9.280;2022-11-14T09:38:23;5.50;99.90
8709;DHT22;4391;48.678;9.280;2022-11-14T09:40:57;5.50;99.90
8709;DHT22;4391;48.678;9.280;2022-11-14T09:43:40;5.80;99.90
8709;DHT22;4391;48.678;9.280;2022-11-14T09:46:17;5.90;99.90
8709;DHT22;4391;48.678;9.280;2022-11-14T09:48:48;6.00;99.90
8709;DHT22;4391;48.678;9.280;2022-11-14T09:51:20;6.00;99.90
8709;DHT22;4391;48.678;9.280;2022-11-14T09:53:51;6.10;99.90
8709;DHT22;4391;48.678;9.280;2022-11-14T09:56:21;5.90;99.90
8709;DHT22;4391;48.678;9.280;2022-11-14T09:58:50;5.90;99.90
8709;DHT22;4391;48.678;9.280;2022-11-14T10:01:35;5.90;99.90
8709;DHT22;4391;48.678;9.280;2022-11-14T10:04:13;6.10;99.90
8709;DHT22;4391;48.678;9.280;2022-11-14T10:06:52;6.20;99.90
8709;DHT22;4391;48.678;9.280;2022-11-14T10:09:30;6.40;99.90
8709;DHT22;4391;48.678;9.280;2022-11-14T10:12:06;6.50;99.90
8709;DHT22;4391;48.678;9.280;2022-11-14T10:14:48;6.60;99.90
8709;DHT22;4391;48.678;9.280;2022-11-14T10:17:29;6.80;99.90
8709;DHT22;4391;48.678;9.280;2022-11-14T10:20:10;7.00;99.90
8709;DHT22;4391;48.678;9.280;2022-11-14T10:22:53;7.10;99.90
8709;DHT22;4391;48.678;9.280;2022-11-14T10:25:25;7.30;99.90
8709;DHT22;4391;48.678;9.280;2022-11-14T10:28:06;7.50;99.90
8709;DHT22;4391;48.678;9.280;2022-11-14T10:30:38;7.70;99.90
8709;DHT22;4391;48.678;9.280;2022-11-14T10:33:30;7.80;99.90
8709;DHT22;4391;48.678;9.280;2022-11-14T10:36:05;8.00;99.90
8709;DHT22;4391;48.678;9.280;2022-11-14T10:38:35;8.10;99.90
8709;DHT22;4391;48.678;9.280;2022-11-14T10:41:04;8.20;99.90
8709;DHT22;4391;48.678;9.280;2022-11-14T10:43:34;8.40;99.90
8709;DHT22;4391;48.678;9.280;2022-11-14T10:46:06;8.60;99.90
8709;DHT22;4391;48.678;9.280;2022-11-14T10:48:38;8.80;99.90
8709;DHT22;4391;48.678;9.280;2022-11-14T10:51:13;8.90;99.90
8709;DHT22;4391;48.678;9.280;2022-11-14T10:53:49;9.10;99.60
8709;DHT22;4391;48.678;9.280;2022-11-14T10:56:17;9.00;99.90
8709;DHT22;4391;48.678;9.280;2022-11-14T10:58:44;9.00;99.90
8709;DHT22;4391;48.678;9.280;2022-11-14T11:01:33;9.10;99.90
8709;DHT22;4391;48.678;9.280;2022-11-14T11:04:12;9.20;99.90
8709;DHT22;4391;48.678;9.280;2022-11-14T11:06:41;9.40;86.10
8709;DHT22;4391;48.678;9.280;2022-11-14T11:09:11;9.50;85.90
8709;DHT22;4391;48.678;9.280;2022-11-14T11:11:58;9.60;86.80
8709;DHT22;4391;48.678;9.280;2022-11-14T11:14:26;9.70;91.50
8709;DHT22;4391;48.678;9.280;2022-11-14T11:17:08;9.80;68.70
8709;DHT22;4391;48.678;9.280;2022-11-14T11:19:40;9.90;66.50
8709;DHT22;4391;48.678;9.280;2022-11-14T11:22:24;10.00;52.70
8709;DHT22;4391;48.678;9.280;2022-11-14T11:24:51;10.20;32.10
8709;DHT22;4391;48.678;9.280;2022-11-14T11:27:21;10.40;1.00
8709;DHT22;4391;48.678;9.280;2022-11-14T11:30:06;10.60;1.00
8709;DHT22;4391;48.678;9.280;2022-11-14T11:32:33;10.80;1.00
8709;DHT22;4391;48.678;9.280;2022-11-14T11:35:05;11.00;1.00
8709;DHT22;4391;48.678;9.280;2022-11-14T11:37:41;11.20;1.00
8709;DHT22;4391;48.678;9.280;2022-11-14T11:40:15;11.30;1.00
8709;DHT22;4391;48.678;9.280;2022-11-14T11:42:46;11.40;1.00
8709;DHT22;4391;48.678;9.280;2022-11-14T11:45:16;11.40;1.00
8709;DHT22;4391;48.678;9.280;2022-11-14T11:47:49;11.40;1.00
8709;DHT22;4391;48.678;9.280;2022-11-14T11:50:19;11.50;99.90
8709;DHT22;4391;48.678;9.280;2022-11-14T11:52:55;11.30;99.90
8709;DHT22;4391;48.678;9.280;2022-11-14T11:55:27;11.30;99.90
8709;DHT22;4391;48.678;9.280;2022-11-14T11:58:01;11.30;1.00
8709;DHT22;4391;48.678;9.280;2022-11-14T12:00:28;11.20;1.00
8709;DHT22;4391;48.678;9.280;2022-11-14T12:02:57;11.10;1.00
8709;DHT22;4391;48.678;9.280;2022-11-14T12:05:30;10.90;1.00
8709;DHT22;4391;48.678;9.280;2022-11-14T12:08:03;10.90;1.00
8709;DHT22;4391;48.678;9.280;2022-11-14T12:10:35;10.80;1.00
8709;DHT22;4391;48.678;9.280;2022-11-14T12:13:42;10.80;1.00
8709;DHT22;4391;48.678;9.280;2022-11-14T12:16:32;10.70;1.00
8709;DHT22;4391;48.678;9.280;2022-11-14T12:19:26;10.70;1.00
8709;DHT22;4391;48.678;9.280;2022-11-14T12:25:26;10.80;1.00
8709;DHT22;4391;48.678;9.280;2022-11-14T12:28:08;11.00;1.00
8709;DHT22;4391;48.678;9.280;2022-11-14T12:30:39;11.50;1.00
8709;DHT22;4391;48.678;9.280;2022-11-14T12:33:10;13.20;1.00
8709;DHT22;4391;48.678;9.280;2022-11-14T12:35:47;15.20;1.00
8709;DHT22;4391;48.678;9.280;2022-11-14T12:38:17;17.20;1.00
8709;DHT22;4391;48.678;9.280;2022-11-14T12:40:51;18.10;1.00
8709;DHT22;4391;48.678;9.280;2022-11-14T12:43:34;18.70;1.00
8709;DHT22;4391;48.678;9.280;2022-11-14T12:46:03;19.00;99.90
8709;DHT22;4391;48.678;9.280;2022-11-14T12:48:35;19.50;99.90
8709;DHT22;4391;48.678;9.280;2022-11-14T12:51:03;19.70;99.90
8709;DHT22;4391;48.678;9.280;2022-11-14T12:53:38;20.50;99.90
8709;DHT22;4391;48.678;9.280;2022-11-14T12:59:31;20.90;99.90
8709;DHT22;4391;48.678;9.280;2022-11-14T13:02:38;20.80;99.90
8709;DHT22;4391;48.678;9.280;2022-11-14T13:05:42;20.70;99.90
8709;DHT22;4391;48.678;9.280;2022-11-14T13:08:28;19.40;99.90
8709;DHT22;4391;48.678;9.280;2022-11-14T13:10:57;18.00;99.90
8709;DHT22;4391;48.678;9.280;2022-11-14T13:13:26;18.60;99.90
8709;DHT22;4391;48.678;9.280;2022-11-14T13:16:22;19.20;99.90
8709;DHT22;4391;48.678;9.280;2022-11-14T13:19:15;20.00;99.90
8709;DHT22;4391;48.678;9.280;2022-11-14T13:22:32;21.50;99.90
8709;DHT22;4391;48.678;9.280;2022-11-14T13:25:22;22.40;99.90
8709;DHT22;4391;48.678;9.280;2022-11-14T13:27:49;22.10;99.90
8709;DHT22;4391;48.678;9.280;2022-11-14T13:33:45;21.00;99.90
8709;DHT22;4391;48.678;9.280;2022-11-14T13:36:20;20.60;99.90
8709;DHT22;4391;48.678;9.280;2022-11-14T13:39:04;20.70;99.90
8709;DHT22;4391;48.678;9.280;2022-11-14T13:48:07;22.40;99.90
8709;DHT22;4391;48.678;9.280;2022-11-14T13:50:38;21.40;99.90
8709;DHT22;4391;48.678;9.280;2022-11-14T13:53:12;20.40;99.90
8709;DHT22;4391;48.678;9.280;2022-11-14T13:55:59;19.10;99.90
8709;DHT22;4391;48.678;9.280;2022-11-14T13:58:43;18.00;99.90
8709;DHT22;4391;48.678;9.280;2022-11-14T14:01:23;16.80;99.90
8709;DHT22;4391;48.678;9.280;2022-11-14T14:04:07;15.70;1.00
8709;DHT22;4391;48.678;9.280;2022-11-14T14:06:51;14.80;1.00
8709;DHT22;4391;48.678;9.280;2022-11-14T14:09:27;14.40;95.40
8709;DHT22;4391;48.678;9.280;2022-11-14T14:12:17;14.10;99.90
8709;DHT22;4391;48.678;9.280;2022-11-14T14:15:03;13.90;99.90
8709;DHT22;4391;48.678;9.280;2022-11-14T14:17:42;13.60;1.00
8709;DHT22;4391;48.678;9.280;2022-11-14T14:20:29;13.40;90.80
8709;DHT22;4391;48.678;9.280;2022-11-14T14:23:05;13.30;99.90
8709;DHT22;4391;48.678;9.280;2022-11-14T14:25:42;13.20;1.00
8709;DHT22;4391;48.678;9.280;2022-11-14T14:28:17;13.20;1.00
8709;DHT22;4391;48.678;9.280;2022-11-14T14:31:03;13.00;1.00
8709;DHT22;4391;48.678;9.280;2022-11-14T14:33:38;12.90;1.00
8709;DHT22;4391;48.678;9.280;2022-11-14T14:36:16;12.80;99.90
8709;DHT22;4391;48.678;9.280;2022-11-14T14:38:45;12.80;99.90
8709;DHT22;4391;48.678;9.280;2022-11-14T14:41:13;12.80;1.00
8709;DHT22;4391;48.678;9.280;2022-11-14T14:43:49;12.60;50.70
8709;DHT22;4391;48.678;9.280;2022-11-14T14:46:28;12.60;99.90
8709;DHT22;4391;48.678;9.280;2022-11-14T14:48:56;12.40;1.00
8709;DHT22;4391;48.678;9.280;2022-11-14T14:51:29;12.40;1.00
8709;DHT22;4391;48.678;9.280;2022-11-14T14:53:58;12.30;99.90
8709;DHT22;4391;48.678;9.280;2022-11-14T14:56:25;12.20;99.90
8709;DHT22;4391;48.678;9.280;2022-11-14T14:58:53;12.10;1.00
8709;DHT22;4391;48.678;9.280;2022-11-14T15:01:30;12.00;99.90
8709;DHT22;4391;48.678;9.280;2022-11-14T15:04:01;11.90;78.20
8709;DHT22;4391;48.678;9.280;2022-11-14T15:06:32;11.80;99.90
8709;DHT22;4391;48.678;9.280;2022-11-14T15:09:07;11.70;1.00
8709;DHT22;4391;48.678;9.280;2022-11-14T15:11:35;11.60;45.80
8709;DHT22;4391;48.678;9.280;2022-11-14T15:14:05;11.50;1.00
8709;DHT22;4391;48.678;9.280;2022-11-14T15:16:32;11.50;99.90
8709;DHT22;4391;48.678;9.280;2022-11-14T15:19:00;11.50;99.90
8709;DHT22;4391;48.678;9.280;2022-11-14T15:21:28;11.40;99.90
8709;DHT22;4391;48.678;9.280;2022-11-14T15:24:01;11.30;99.90
8709;DHT22;4391;48.678;9.280;2022-11-14T15:26:29;11.20;99.90
8709;DHT22;4391;48.678;9.280;2022-11-14T15:29:04;11.10;99.90
8709;DHT22;4391;48.678;9.280;2022-11-14T15:31:33;11.20;99.90
8709;DHT22;4391;48.678;9.280;2022-11-14T15:34:18;11.00;99.90
8709;DHT22;4391;48.678;9.280;2022-11-14T15:37:21;11.10;99.90
8709;DHT22;4391;48.678;9.280;2022-11-14T15:39:50;11.00;99.90
8709;DHT22;4391;48.678;9.280;2022-11-14T15:42:19;10.90;99.90
8709;DHT22;4391;48.678;9.280;2022-11-14T15:44:52;10.80;1.00
8709;DHT22;4391;48.678;9.280;2022-11-14T15:47:21;10.80;1.00
8709;DHT22;4391;48.678;9.280;2022-11-14T15:49:57;10.70;1.00
8709;DHT22;4391;48.678;9.280;2022-11-14T15:52:29;10.70;1.00
8709;DHT22;4391;48.678;9.280;2022-11-14T15:54:57;10.60;1.00
8709;DHT22;4391;48.678;9.280;2022-11-14T15:57:24;10.50;1.00
8709;DHT22;4391;48.678;9.280;2022-11-14T15:59:51;10.40;1.00
8709;DHT22;4391;48.678;9.280;2022-11-14T16:02:20;10.50;1.00
8709;DHT22;4391;48.678;9.280;2022-11-14T16:04:49;10.60;99.90
8709;DHT22;4391;48.678;9.280;2022-11-14T16:07:19;10.70;99.90
8709;DHT22;4391;48.678;9.280;2022-11-14T16:09:46;10.70;99.90
8709;DHT22;4391;48.678;9.280;2022-11-14T16:12:15;10.70;99.90
8709;DHT22;4391;48.678;9.280;2022-11-14T16:14:42;10.70;99.90
8709;DHT22;4391;48.678;9.280;2022-11-14T16:17:12;10.60;99.90
8709;DHT22;4391;48.678;9.280;2022-11-14T16:19:39;10.40;99.90
8709;DHT22;4391;48.678;9.280;2022-11-14T16:22:09;10.20;1.00
8709;DHT22;4391;48.678;9.280;2022-11-14T16:24:37;10.00;1.00
8709;DHT22;4391;48.678;9.280;2022-11-14T16:27:04;9.80;1.00
8709;DHT22;4391;48.678;9.280;2022-11-14T16:29:33;9.60;1.00
8709;DHT22;4391;48.678;9.280;2022-11-14T16:31:59;9.50;1.00
8709;DHT22;4391;48.678;9.280;2022-11-14T16:34:27;9.30;1.00
8709;DHT22;4391;48.678;9.280;2022-11-14T16:36:57;9.00;17.00
8709;DHT22;4391;48.678;9.280;2022-11-14T16:39:25;8.80;27.70
8709;DHT22;4391;48.678;9.280;2022-11-14T16:41:52;8.60;45.70
8709;DHT22;4391;48.678;9.280;2022-11-14T16:44:19;8.40;78.90
8709;DHT22;4391;48.678;9.280;2022-11-14T16:46:47;8.20;90.30
8709;DHT22;4391;48.678;9.280;2022-11-14T16:49:15;8.10;95.40
8709;DHT22;4391;48.678;9.280;2022-11-14T16:51:42;7.90;99.90